Time;durP1;ratioP1;P1;durP2;ratioP2;P2;SDS_P1;SDS_P2;PMS_P1;PMS_P2;Temp;Humidity;BMP_temperature;BMP_pressure;BME280_temperature;BME280_humidity;BME280_pressure;Samples;Min_cycle;Max_cycle;Signal;HPM_P1;HPM_P2
2023/08/28 00:05:20;;;;;;;18.60;7.63;;;;;;;11.63;100.00;101058.53;5070587;28;20028;-70
2023/08/28 00:07:45;;;;;;;18.42;7.35;;;;;;;11.61;100.00;101060.31;5072393;28;20055;-66
2023/08/28 00:10:11;;;;;;;18.63;7.68;;;;;;;11.58;100.00;101055.00;5074836;28;20553;-70
2023/08/28 00:12:40;;;;;;;18.83;7.10;;;;;;;11.58;100.00;101050.59;5075900;28;20068;-70
2023/08/28 00:15:07;;;;;;;18.40;7.70;;;;;;;11.57;100.00;101055.88;5075641;28;20046;-70
2023/08/28 00:17:32;;;;;;;18.45;7.65;;;;;;;11.56;100.00;101056.75;5075943;28;20032;-68
2023/08/28 00:19:57;;;;;;;18.25;7.75;;;;;;;11.48;100.00;101057.59;5074087;28;20143;-70
2023/08/28 00:22:23;;;;;;;18.10;7.60;;;;;;;11.48;100.00;101049.66;5075667;28;20107;-69
2023/08/28 00:24:48;;;;;;;18.60;7.50;;;;;;;11.54;100.00;101042.63;5075881;28;20472;-71
2023/08/28 00:27:14;;;;;;;18.50;7.72;;;;;;;11.50;100.00;101041.72;5075615;28;20476;-70
2023/08/28 00:29:39;;;;;;;19.95;7.63;;;;;;;11.47;100.00;101042.59;5075549;28;20032;-70
2023/08/28 00:32:05;;;;;;;21.77;7.57;;;;;;;11.45;100.00;101043.50;5074360;28;20031;-70
2023/08/28 00:34:30;;;;;;;18.80;7.72;;;;;;;11.50;100.00;101047.03;5075481;28;20395;-70
2023/08/28 00:36:56;;;;;;;18.58;7.90;;;;;;;11.54;100.00;101037.34;5075417;28;20052;-70
2023/08/28 00:39:21;;;;;;;17.98;7.95;;;;;;;11.41;100.00;101042.56;5075462;28;20024;-70
2023/08/28 00:41:46;;;;;;;19.25;8.30;;;;;;;11.37;100.00;101034.63;5073951;28;20075;-70
2023/08/28 00:44:12;;;;;;;18.83;7.82;;;;;;;11.39;100.00;101030.19;5075330;28;20052;-69
2023/08/28 00:46:38;;;;;;;19.60;8.25;;;;;;;11.38;100.00;101028.47;5075418;28;20537;-70
2023/08/28 00:49:03;;;;;;;19.55;8.18;;;;;;;11.37;100.00;101027.56;5075554;28;20502;-70
2023/08/28 00:51:30;;;;;;;18.98;8.23;;;;;;;11.35;100.00;101026.69;5075530;28;20037;-70
2023/08/28 00:53:55;;;;;;;19.02;8.18;;;;;;;11.30;100.00;101034.59;5075345;28;20090;-70
2023/08/28 00:56:21;;;;;;;19.58;8.20;;;;;;;11.30;100.00;101033.69;5075365;28;20024;-70
2023/08/28 00:58:46;;;;;;;19.55;8.40;;;;;;;11.28;100.00;101033.69;5075158;28;20115;-70
2023/08/28 01:01:11;;;;;;;19.17;8.38;;;;;;;11.23;100.00;101027.50;5075043;28;20024;-70
2023/08/28 01:03:37;;;;;;;19.65;8.60;;;;;;;11.26;100.00;101031.94;5073732;28;20072;-69
2023/08/28 01:06:08;;;;;;;19.17;8.60;;;;;;;11.23;100.00;101034.56;5075299;28;20032;-70
2023/08/28 01:08:41;;;;;;;19.27;8.77;;;;;;;11.14;100.00;101036.28;5074883;28;20467;-70
2023/08/28 01:11:26;;;;;;;;;;;;;;;11.13;100.00;101031.00;5070440;28;20024;-68
2023/08/28 01:14:01;;;;;;;19.35;8.70;;;;;;;11.09;100.00;101032.72;5065696;28;19920;-68
2023/08/28 01:16:28;;;;;;;19.05;8.80;;;;;;;11.09;100.00;101040.66;5074633;28;20479;-68
2023/08/28 01:18:54;;;;;;;18.67;8.70;;;;;;;11.07;100.00;101034.50;5074629;28;20044;-67
2023/08/28 01:21:19;;;;;;;19.25;9.45;;;;;;;11.06;100.00;101035.34;5074546;28;20029;-67
2023/08/28 01:23:59;;;;;;;20.58;9.25;;;;;;;11.08;100.00;101038.91;5074540;28;20032;-68
2023/08/28 01:26:25;;;;;;;20.48;9.40;;;;;;;11.02;100.00;101028.28;5074793;28;20119;-68
2023/08/28 01:28:51;;;;;;;20.33;10.40;;;;;;;11.02;100.00;101025.63;5074958;28;20112;-68
2023/08/28 01:31:16;;;;;;;21.25;10.07;;;;;;;10.98;100.00;101018.56;5074381;28;20037;-67
2023/08/28 01:33:43;;;;;;;20.13;10.00;;;;;;;10.96;100.00;101022.97;5074324;28;20086;-65
2023/08/28 01:36:11;;;;;;;20.33;10.20;;;;;;;10.90;100.00;101030.88;5074566;28;20099;-69
2023/08/28 01:38:47;;;;;;;20.98;10.38;;;;;;;10.87;100.00;101023.78;5070383;28;20033;-68
2023/08/28 01:41:17;;;;;;;21.17;10.32;;;;;;;10.85;100.00;101036.13;5071060;28;20021;-65
2023/08/28 01:43:47;;;;;;;22.40;11.27;;;;;;;10.83;100.00;101022.00;5074348;28;20040;-69
2023/08/28 01:46:12;;;;;;;20.73;11.05;;;;;;;10.78;100.00;101013.16;5074479;28;20048;-68
2023/08/28 01:48:53;;;;;;;20.83;10.73;;;;;;;10.74;100.00;101011.38;5074101;28;20028;-69
2023/08/28 01:51:22;;;;;;;22.02;11.10;;;;;;;10.76;100.00;101012.25;5071756;28;20060;-67
2023/08/28 01:53:48;;;;;;;21.52;10.98;;;;;;;10.76;100.00;101010.50;5074090;28;20361;-67
2023/08/28 01:56:21;;;;;;;21.60;11.95;;;;;;;10.77;100.00;101019.31;5072659;28;20035;-69
2023/08/28 01:58:53;;;;;;;21.15;11.80;;;;;;;10.74;100.00;101022.81;5074079;28;20054;-69
2023/08/28 02:01:18;;;;;;;21.27;11.45;;;;;;;10.78;100.00;101019.31;5073785;28;20031;-68
2023/08/28 02:03:44;;;;;;;22.25;11.70;;;;;;;10.75;100.00;101014.03;5073372;28;20033;-67
2023/08/28 02:06:09;;;;;;;21.75;11.88;;;;;;;10.72;100.00;101011.38;5073719;28;20033;-66
2023/08/28 02:08:35;;;;;;;22.70;12.80;;;;;;;10.70;100.00;101005.16;5073611;28;20078;-68
2023/08/28 02:11:00;;;;;;;22.70;12.73;;;;;;;10.71;100.00;101000.78;5073925;28;20028;-69
2023/08/28 02:13:26;;;;;;;22.75;12.20;;;;;;;10.69;100.00;101000.78;5073561;28;20043;-67
2023/08/28 02:15:51;;;;;;;22.15;12.75;;;;;;;10.69;100.00;100995.47;5073904;28;20107;-67
2023/08/28 02:18:17;;;;;;;22.23;12.40;;;;;;;10.63;100.00;101004.25;5073594;28;20426;-69
2023/08/28 02:20:44;;;;;;;22.02;12.27;;;;;;;10.59;100.00;101001.59;5073197;28;20048;-69
2023/08/28 02:23:09;;;;;;;22.85;12.75;;;;;;;10.61;100.00;100998.06;5073125;28;20032;-68
2023/08/28 02:25:34;;;;;;;22.38;12.90;;;;;;;10.61;100.00;101007.75;5073300;28;20032;-61
2023/08/28 02:28:00;;;;;;;22.90;13.40;;;;;;;10.58;100.00;101013.03;5073257;28;20104;-70
2023/08/28 02:30:25;;;;;;;22.88;13.25;;;;;;;10.56;100.00;101013.03;5073371;28;20025;-65
2023/08/28 02:32:50;;;;;;;21.98;13.50;;;;;;;10.56;100.00;101007.72;5073283;28;20119;-65
2023/08/28 02:35:16;;;;;;;23.00;13.05;;;;;;;10.54;100.00;101016.50;5073337;28;20122;-67
2023/08/28 02:37:41;;;;;;;23.33;13.95;;;;;;;10.55;100.00;101010.38;5073313;28;20029;-68
2023/08/28 02:40:09;;;;;;;23.73;13.95;;;;;;;10.55;100.00;101015.66;5071830;28;20028;-70
2023/08/28 02:42:35;;;;;;;24.10;14.27;;;;;;;10.53;100.00;101006.81;5072917;28;20032;-61
2023/08/28 02:45:01;;;;;;;22.92;14.13;;;;;;;10.46;100.00;101012.06;5073234;28;20489;-65
2023/08/28 02:47:26;;;;;;;25.55;14.50;;;;;;;10.45;100.00;101015.56;5072966;28;20025;-68
2023/08/28 02:49:51;;;;;;;22.85;13.70;;;;;;;10.48;100.00;101017.34;5072940;28;20060;-70
2023/08/28 02:52:18;;;;;;;23.52;13.88;;;;;;;10.52;100.00;101021.78;5073133;28;20036;-63
2023/08/28 02:54:43;;;;;;;23.63;13.20;;;;;;;10.46;100.00;101017.34;5072853;28;20024;-62
2023/08/28 02:57:08;;;;;;;23.63;13.00;;;;;;;10.44;100.00;101024.38;5072903;28;20554;-65
2023/08/28 02:59:34;;;;;;;23.40;13.35;;;;;;;10.40;100.00;101024.34;5073078;28;20108;-71
2023/08/28 03:01:59;;;;;;;23.80;14.30;;;;;;;10.38;100.00;101028.72;5072777;28;20133;-68
2023/08/28 03:04:24;;;;;;;24.38;14.73;;;;;;;10.31;100.00;101030.41;5072881;28;20426;-69
2023/08/28 03:06:50;;;;;;;23.67;13.70;;;;;;;10.20;100.00;101021.50;5072617;28;20027;-72
2023/08/28 03:09:15;;;;;;;24.80;15.40;;;;;;;10.26;100.00;101024.19;5072695;28;20031;-70
2023/08/28 03:11:40;;;;;;;23.92;15.18;;;;;;;10.26;100.00;101032.13;5072800;28;20119;-65
2023/08/28 03:14:06;;;;;;;23.90;15.15;;;;;;;10.25;100.00;101044.47;5072709;28;20037;-64
2023/08/28 03:16:32;;;;;;;24.15;15.75;;;;;;;10.28;100.00;101040.94;5072624;28;20024;-64
2023/08/28 03:18:57;;;;;;;25.42;16.33;;;;;;;10.29;100.00;101040.06;5072602;28;20028;-64
2023/08/28 03:21:23;;;;;;;24.92;16.20;;;;;;;10.29;100.00;101045.34;5068424;28;20117;-69
2023/08/28 03:23:48;;;;;;;24.98;16.38;;;;;;;10.35;100.00;101041.91;5072620;28;20037;-69
2023/08/28 03:26:14;;;;;;;24.42;15.30;;;;;;;10.33;100.00;101041.88;5072979;28;20506;-68
2023/08/28 03:28:39;;;;;;;24.13;14.45;;;;;;;10.34;100.00;101046.34;5072618;28;20103;-67
2023/08/28 03:31:05;;;;;;;26.35;16.35;;;;;;;10.39;100.00;101043.72;5072483;28;20045;-69
2023/08/28 03:33:30;;;;;;;25.70;16.58;;;;;;;10.42;100.00;101049.91;5071974;28;20024;-67
2023/08/28 03:35:56;;;;;;;25.30;16.73;;;;;;;10.45;100.00;101055.22;5076694;28;20036;-68
2023/08/28 03:38:22;;;;;;;27.48;17.77;;;;;;;10.50;100.00;101057.00;5076492;28;20024;-69
2023/08/28 03:40:47;;;;;;;25.98;17.60;;;;;;;10.52;100.00;101065.84;5076734;28;20029;-68
2023/08/28 03:43:13;;;;;;;27.20;17.48;;;;;;;10.53;100.00;101065.88;5075013;28;20033;-68
2023/08/28 03:45:39;;;;;;;26.00;17.58;;;;;;;10.55;100.00;101069.41;5076573;28;20119;-68
2023/08/28 03:48:05;;;;;;;25.77;17.85;;;;;;;10.56;100.00;101070.31;5076394;28;20028;-69
2023/08/28 03:50:31;;;;;;;25.77;17.33;;;;;;;10.55;100.00;101068.53;5076293;28;20056;-69
2023/08/28 03:52:58;;;;;;;25.98;17.08;;;;;;;10.53;100.00;101075.53;5076510;28;20067;-69
2023/08/28 03:55:24;;;;;;;26.30;17.90;;;;;;;10.55;100.00;101068.53;5072175;28;20051;-67
2023/08/28 03:57:50;;;;;;;25.85;17.65;;;;;;;10.55;100.00;101073.81;5076141;28;20056;-69
2023/08/28 04:00:18;;;;;;;26.38;17.25;;;;;;;10.61;100.00;101087.06;5076254;28;20024;-69
2023/08/28 04:02:45;;;;;;;26.52;17.63;;;;;;;10.62;100.00;101091.50;5074325;28;20383;-69
2023/08/28 04:05:11;;;;;;;26.00;16.95;;;;;;;10.64;100.00;101090.63;5075102;28;20023;-68
2023/08/28 04:07:36;;;;;;;26.23;17.10;;;;;;;10.69;100.00;101095.97;5076167;28;20025;-68
2023/08/28 04:10:02;;;;;;;24.83;17.08;;;;;;;10.73;100.00;101092.47;5076119;28;20093;-68
2023/08/28 04:12:28;;;;;;;26.23;17.63;;;;;;;10.79;100.00;101094.25;5075807;28;20028;-68
2023/08/28 04:14:53;;;;;;;25.90;16.50;;;;;;;10.82;100.00;101100.47;5074588;28;20031;-66
2023/08/28 04:17:19;;;;;;;25.13;16.88;;;;;;;10.86;100.00;101088.13;5075756;28;20031;-69
2023/08/28 04:19:45;;;;;;;25.35;16.90;;;;;;;10.94;100.00;101093.50;5075670;28;20514;-69
2023/08/28 04:22:11;;;;;;;25.05;16.42;;;;;;;10.97;100.00;101093.50;5074591;28;20068;-67
2023/08/28 04:24:36;;;;;;;26.80;17.60;;;;;;;11.05;100.00;101091.78;5075717;28;20055;-68
2023/08/28 04:27:02;;;;;;;24.98;16.42;;;;;;;11.13;100.00;101089.19;5075633;28;20027;-68
2023/08/28 04:29:27;;;;;;;26.80;17.70;;;;;;;11.16;100.00;101092.72;5076049;28;20051;-69
2023/08/28 04:31:53;;;;;;;26.05;17.35;;;;;;;11.18;100.00;101092.75;5075503;28;20032;-69
2023/08/28 04:34:18;;;;;;;28.35;18.17;;;;;;;11.22;100.00;101098.94;5075438;28;20157;-69
2023/08/28 04:36:44;;;;;;;25.35;17.17;;;;;;;11.22;100.00;101098.94;5074559;28;20029;-69
2023/08/28 04:39:09;;;;;;;26.15;17.92;;;;;;;11.25;100.00;101098.97;5075360;28;20484;-69
2023/08/28 04:41:34;;;;;;;25.33;17.48;;;;;;;11.30;100.00;101102.50;5075433;28;20086;-69
2023/08/28 04:44:00;;;;;;;25.70;17.40;;;;;;;11.30;100.00;101098.13;5075371;28;20039;-68
2023/08/28 04:46:25;;;;;;;25.98;17.23;;;;;;;11.31;100.00;101099.00;5075392;28;20532;-69
2023/08/28 04:48:51;;;;;;;28.65;17.83;;;;;;;11.35;100.00;101095.50;5075614;28;20028;-69
2023/08/28 04:51:16;;;;;;;26.10;17.77;;;;;;;11.37;100.00;101092.84;5090884;28;20032;-67
2023/08/28 04:53:42;;;;;;;26.05;17.73;;;;;;;11.39;100.00;101084.03;5075003;28;20127;-69
2023/08/28 04:56:07;;;;;;;27.02;18.02;;;;;;;11.40;100.00;101077.88;5075585;28;20033;-68
2023/08/28 04:58:33;;;;;;;27.05;18.30;;;;;;;11.43;100.00;101077.00;5075027;28;20032;-68
2023/08/28 05:00:59;;;;;;;27.00;18.25;;;;;;;11.46;100.00;101075.25;5074999;28;20025;-69
2023/08/28 05:03:25;;;;;;;27.63;18.27;;;;;;;11.47;100.00;101079.66;5072863;28;20119;-69
2023/08/28 05:05:51;;;;;;;26.30;17.77;;;;;;;11.49;100.00;101072.63;5074793;28;20063;-67
2023/08/28 05:08:16;;;;;;;26.50;18.30;;;;;;;11.53;100.00;101078.78;5074919;28;20029;-69
2023/08/28 05:10:41;;;;;;;25.98;17.63;;;;;;;11.56;100.00;101070.84;5075067;28;20025;-69
2023/08/28 05:13:08;;;;;;;25.55;17.42;;;;;;;11.58;100.00;101074.41;5074707;28;20048;-67
2023/08/28 05:15:33;;;;;;;26.40;17.48;;;;;;;11.62;100.00;101067.34;5074649;28;20045;-67
2023/08/28 05:17:58;;;;;;;25.75;17.58;;;;;;;11.64;100.00;101071.78;5074831;28;20029;-62
2023/08/28 05:20:24;;;;;;;25.65;17.17;;;;;;;11.70;100.00;101068.28;5073346;28;20049;-70
2023/08/28 05:22:49;;;;;;;26.25;17.23;;;;;;;11.76;100.00;101067.41;5074740;28;20124;-72
2023/08/28 05:25:14;;;;;;;25.95;17.67;;;;;;;11.83;100.00;101071.84;5074658;28;20024;-66
2023/08/28 05:27:40;;;;;;;24.80;17.23;;;;;;;11.89;100.00;101069.22;5090164;28;20032;-69
2023/08/28 05:30:06;;;;;;;24.80;16.83;;;;;;;11.97;100.00;101071.91;5074592;28;20032;-67
2023/08/28 05:32:32;;;;;;;24.60;16.80;;;;;;;12.02;100.00;101075.47;5071449;28;20032;-61
2023/08/28 05:34:58;;;;;;;24.70;16.38;;;;;;;12.05;100.00;101070.16;5074946;28;20391;-62
2023/08/28 05:37:25;;;;;;;24.73;16.42;;;;;;;12.05;100.00;101067.53;5073844;28;20085;-61
2023/08/28 05:39:51;;;;;;;25.10;16.52;;;;;;;12.07;100.00;101071.03;5074107;28;20033;-62
2023/08/28 05:42:16;;;;;;;24.88;17.08;;;;;;;12.03;100.00;101061.34;5073872;28;20068;-61
2023/08/28 05:44:42;;;;;;;25.08;16.67;;;;;;;12.01;100.00;101061.34;5074162;28;20395;-63
2023/08/28 05:47:08;;;;;;;25.13;16.95;;;;;;;12.01;100.00;101060.44;5074068;28;20067;-61
2023/08/28 05:49:34;;;;;;;26.08;17.60;;;;;;;12.02;100.00;101064.88;5073868;28;20028;-61
2023/08/28 05:51:59;;;;;;;24.92;17.20;;;;;;;12.01;100.00;101064.00;5074114;28;20036;-61
2023/08/28 05:54:25;;;;;;;25.33;17.75;;;;;;;12.02;100.00;101065.72;5072232;28;20471;-63
2023/08/28 05:56:50;;;;;;;27.02;17.65;;;;;;;12.02;100.00;101078.97;5073543;28;20033;-61
2023/08/28 05:59:15;;;;;;;25.85;17.98;;;;;;;12.04;100.00;101079.00;5073778;28;20031;-66
2023/08/28 06:01:41;;;;;;;25.45;18.10;;;;;;;12.09;100.00;101079.91;5073420;28;20436;-64
2023/08/28 06:04:06;;;;;;;26.88;18.55;;;;;;;12.13;100.00;101072.81;5071395;28;20032;-62
2023/08/28 06:06:31;;;;;;;25.60;18.20;;;;;;;12.16;100.00;101078.16;5074041;28;20046;-63
2023/08/28 06:08:57;;;;;;;25.27;18.60;;;;;;;12.17;100.00;101072.84;5073168;28;20029;-63
2023/08/28 06:11:22;;;;;;;27.88;18.58;;;;;;;12.19;100.00;101076.38;5073578;28;20116;-61
2023/08/28 06:13:48;;;;;;;26.80;19.00;;;;;;;12.23;100.00;101077.25;5073398;28;20020;-62
2023/08/28 06:16:13;;;;;;;26.90;18.98;;;;;;;12.28;100.00;101074.63;5073258;28;20035;-61
2023/08/28 06:18:38;;;;;;;26.20;19.25;;;;;;;12.31;100.00;101075.50;5073570;28;20422;-61
2023/08/28 06:21:03;;;;;;;26.80;19.70;;;;;;;12.33;100.00;101075.50;5073035;28;20489;-62
2023/08/28 06:23:29;;;;;;;26.33;19.20;;;;;;;12.37;100.00;101078.16;5088822;28;20562;-61
2023/08/28 06:25:55;;;;;;;26.70;18.70;;;;;;;12.41;100.00;101075.50;5073379;28;20052;-60
2023/08/28 06:28:20;;;;;;;26.63;19.15;;;;;;;12.45;100.00;101078.19;5073010;28;20056;-61
2023/08/28 06:30:45;;;;;;;26.80;18.65;;;;;;;12.48;100.00;101085.22;5072999;28;20380;-61
2023/08/28 06:33:11;;;;;;;26.60;19.08;;;;;;;12.52;100.00;101089.66;5088761;28;20085;-61
2023/08/28 06:35:36;;;;;;;26.67;19.15;;;;;;;12.58;100.00;101084.34;5073051;28;20104;-61
2023/08/28 06:38:02;;;;;;;27.02;19.13;;;;;;;12.62;100.00;101083.47;5073069;28;20029;-60
2023/08/28 06:40:27;;;;;;;26.02;18.45;;;;;;;12.70;100.00;101089.66;5073091;28;20537;-61
2023/08/28 06:42:52;;;;;;;27.10;19.40;;;;;;;12.78;100.00;101081.69;5072396;28;20040;-62
2023/08/28 06:45:18;;;;;;;27.70;19.23;;;;;;;12.89;100.00;101085.22;5073185;28;20029;-61
2023/08/28 06:47:43;;;;;;;26.10;18.88;;;;;;;13.00;100.00;101084.31;5072777;28;20067;-62
2023/08/28 06:50:09;;;;;;;25.77;19.05;;;;;;;13.13;100.00;101093.13;5073027;28;20071;-62
2023/08/28 06:52:35;;;;;;;26.17;18.73;;;;;;;13.25;100.00;101091.34;5072954;28;20035;-64
2023/08/28 06:55:01;;;;;;;26.60;18.63;;;;;;;13.38;100.00;101088.66;5072615;28;20483;-61
2023/08/28 06:57:26;;;;;;;26.27;18.13;;;;;;;13.54;100.00;101101.03;5072713;28;20029;-61
2023/08/28 06:59:53;;;;;;;25.88;18.98;;;;;;;13.72;100.00;101101.84;5072876;28;20040;-60
2023/08/28 07:02:18;;;;;;;25.77;17.73;;;;;;;13.77;100.00;101103.56;5072609;28;20503;-60
2023/08/28 07:04:44;;;;;;;24.20;17.25;;;;;;;13.85;100.00;101095.56;5071227;28;20056;-61
2023/08/28 07:07:09;;;;;;;25.77;16.75;;;;;;;13.89;100.00;101107.94;5072692;28;20020;-59
2023/08/28 07:09:35;;;;;;;24.95;15.88;;;;;;;13.95;100.00;101109.69;5070537;28;20035;-61
2023/08/28 07:12:00;;;;;;;25.17;16.52;;;;;;;14.01;100.00;101114.06;5072527;28;20060;-61
2023/08/28 07:14:26;;;;;;;23.75;15.13;;;;;;;14.07;100.00;101111.41;5072524;28;20025;-63
2023/08/28 07:16:51;;;;;;;25.10;15.48;;;;;;;14.07;100.00;101108.72;5072289;28;20032;-60
2023/08/28 07:19:16;;;;;;;25.35;15.13;;;;;;;14.06;100.00;101115.81;5072268;28;20436;-62
2023/08/28 07:21:42;;;;;;;23.88;15.38;;;;;;;14.14;100.00;101115.78;5071454;28;20067;-61
2023/08/28 07:24:08;;;;;;;24.02;15.65;;;;;;;14.23;100.00;101113.06;5072637;28;20035;-60
2023/08/28 07:26:33;;;;;;;24.77;16.55;;;;;;;14.35;100.00;101112.09;5072786;28;20024;-61
2023/08/28 07:28:59;;;;;;;23.30;14.60;;;;;;;14.43;100.00;101112.91;5071229;28;20024;-61
2023/08/28 07:31:24;;;;;;;23.33;14.75;;;;;;;14.59;100.00;101100.38;5070944;28;20037;-61
2023/08/28 07:33:49;;;;;;;23.17;14.90;;;;;;;14.86;100.00;101098.41;5072537;28;20047;-61
2023/08/28 07:36:22;;;;;;;22.75;14.10;;;;;;;15.14;100.00;101103.44;5072328;28;20042;-61
2023/08/28 07:38:48;;;;;;;22.25;14.05;;;;;;;15.44;100.00;101090.72;5070981;28;20029;-62
2023/08/28 07:41:16;;;;;;;22.38;13.65;;;;;;;15.69;100.00;101081.47;5071089;28;20027;-61
2023/08/28 07:43:42;;;;;;;23.20;13.40;;;;;;;15.98;100.00;101087.38;5072162;28;20035;-61
2023/08/28 07:46:08;;;;;;;22.13;12.00;;;;;;;16.11;100.00;101085.41;5071416;28;20471;-63
2023/08/28 07:48:33;;;;;;;22.35;12.27;;;;;;;16.21;100.00;101084.38;5072419;28;20082;-64
2023/08/28 07:50:59;;;;;;;22.40;12.55;;;;;;;16.33;100.00;101084.16;5072236;28;20033;-65
2023/08/28 07:53:24;;;;;;;22.33;12.35;;;;;;;16.52;100.00;101082.06;5070889;28;20041;-62
2023/08/28 07:55:49;;;;;;;21.65;12.25;;;;;;;16.73;100.00;101086.19;5072291;28;20032;-63
2023/08/28 07:58:15;;;;;;;21.42;12.20;;;;;;;16.97;100.00;101086.69;5072135;28;20115;-63
2023/08/28 08:00:41;;;;;;;20.80;11.13;;;;;;;16.93;100.00;101082.31;5070857;28;20097;-65
2023/08/28 08:03:06;;;;;;;21.20;11.70;;;;;;;17.28;100.00;101075.41;5068872;28;20480;-62
2023/08/28 08:05:32;;;;;;;20.88;11.13;;;;;;;17.55;100.00;101083.78;5071705;28;20059;-64
2023/08/28 08:07:57;;;;;;;20.45;10.50;;;;;;;17.64;100.00;101083.59;5071505;28;20024;-61
2023/08/28 08:10:23;;;;;;;20.02;10.48;;;;;;;17.78;100.00;101085.97;5068211;28;20028;-66
2023/08/28 08:12:48;;;;;;;20.42;10.45;;;;;;;17.68;100.00;101082.63;5071548;28;20060;-68
2023/08/28 08:15:14;;;;;;;20.63;10.98;;;;;;;17.66;100.00;101080.88;5071714;28;20052;-67
2023/08/28 08:17:39;;;;;;;21.25;11.10;;;;;;;17.71;100.00;101079.00;5087430;28;20380;-68
2023/08/28 08:20:09;;;;;;;20.50;11.18;;;;;;;17.69;100.00;101079.03;5073015;28;20143;-68
2023/08/28 08:22:35;;;;;;;21.38;11.88;;;;;;;17.58;100.00;101079.25;5075485;28;20032;-71
2023/08/28 08:25:01;;;;;;;20.33;11.50;;;;;;;17.50;100.00;101081.19;5069233;28;20039;-68
2023/08/28 08:27:27;;;;;;;21.05;10.75;;;;;;;17.52;100.00;101081.19;5075671;28;20029;-70
2023/08/28 08:29:53;;;;;;;20.30;10.50;;;;;;;17.57;100.00;101079.28;5075691;28;20028;-70
2023/08/28 08:32:18;;;;;;;20.27;9.68;;;;;;;17.58;100.00;101078.38;5075493;28;20044;-66
2023/08/28 08:34:44;;;;;;;19.23;8.38;;;;;;;17.69;100.00;101075.47;5075303;28;20048;-65
2023/08/28 08:37:09;;;;;;;18.95;7.80;;;;;;;17.82;100.00;101082.28;5075520;28;20028;-65
2023/08/28 08:39:35;;;;;;;18.58;7.80;;;;;;;17.78;100.00;101088.66;5075279;28;20042;-62
2023/08/28 08:42:01;;;;;;;18.92;8.20;;;;;;;17.76;100.00;101099.34;5075002;28;20106;-63
2023/08/28 08:44:26;;;;;;;19.67;9.38;;;;;;;17.81;100.00;101091.25;5072684;28;20051;-68
2023/08/28 08:46:53;;;;;;;19.95;9.60;;;;;;;17.64;100.00;101093.41;5070656;28;20110;-64
2023/08/28 08:49:21;;;;;;;19.23;9.20;;;;;;;17.59;100.00;101086.38;5068766;28;20488;-65
2023/08/28 08:51:50;;;;;;;18.90;8.90;;;;;;;17.67;100.00;101093.34;5075289;28;20044;-62
2023/08/28 08:54:26;;;;;;;18.83;8.45;;;;;;;17.83;100.00;101099.25;5074980;28;20035;-68
2023/08/28 08:56:55;;;;;;;18.02;7.97;;;;;;;18.07;100.00;101097.81;5074895;28;20021;-68
2023/08/28 08:59:21;;;;;;;18.48;8.20;;;;;;;18.32;100.00;101097.25;5075070;28;20467;-67
2023/08/28 09:01:47;;;;;;;18.48;7.50;;;;;;;18.56;100.00;101103.81;5075283;28;20050;-65
2023/08/28 09:04:13;;;;;;;20.17;7.50;;;;;;;18.90;100.00;101094.94;5073820;28;20067;-65
2023/08/28 09:06:40;;;;;;;15.18;5.60;;;;;;;19.32;100.00;101086.66;5074734;28;20067;-67
2023/08/28 09:09:08;;;;;;;14.60;5.65;;;;;;;19.29;100.00;101092.13;5074834;28;20035;-64
2023/08/28 09:11:36;;;;;;;16.10;5.47;;;;;;;19.63;100.00;101085.78;5070847;28;20530;-62
2023/08/28 09:14:02;;;;;;;14.30;5.35;;;;;;;20.41;100.00;101087.84;5074580;28;20033;-63
2023/08/28 09:16:27;;;;;;;11.45;4.60;;;;;;;20.92;100.00;101074.56;5074508;28;20043;-61
2023/08/28 09:18:53;;;;;;;12.32;4.90;;;;;;;21.34;100.00;101068.56;5074607;28;20068;-62
2023/08/28 09:21:19;;;;;;;13.07;4.15;;;;;;;21.54;100.00;101079.47;5073821;28;20135;-62
2023/08/28 09:23:48;;;;;;;10.27;4.00;;;;;;;21.64;100.00;101068.38;5074633;28;20048;-65
2023/08/28 09:26:21;;;;;;;8.18;3.50;;;;;;;21.70;100.00;101070.84;5074452;28;20387;-69
2023/08/28 09:29:03;;;;;;;12.48;4.22;;;;;;;21.79;100.00;101075.84;5074371;28;20464;-63
2023/08/28 09:31:30;;;;;;;7.55;3.53;;;;;;;21.72;100.00;101077.03;5070427;28;20031;-72
2023/08/28 09:33:56;;;;;;;7.75;3.00;;;;;;;21.35;100.00;101073.88;5074380;28;20029;-66
2023/08/28 09:36:21;;;;;;;9.10;3.00;;;;;;;21.17;100.00;101075.44;5074283;28;20020;-62
2023/08/28 09:38:46;;;;;;;10.10;3.60;;;;;;;20.99;100.00;101076.97;5074161;28;20082;-65
2023/08/28 09:41:12;;;;;;;9.82;3.50;;;;;;;20.62;100.00;101075.53;5074194;28;20028;-64
2023/08/28 09:43:37;;;;;;;7.03;2.95;;;;;;;20.52;100.00;101080.34;5074355;28;20494;-65
2023/08/28 09:46:05;;;;;;;8.60;2.80;;;;;;;20.39;100.00;101081.69;5073936;28;20031;-67
2023/08/28 09:48:38;;;;;;;7.93;3.42;;;;;;;20.80;100.00;101082.13;5074391;28;20039;-66
2023/08/28 09:51:06;;;;;;;10.23;3.40;;;;;;;20.99;100.00;101076.09;5073829;28;20039;-65
2023/08/28 09:53:32;;;;;;;9.52;3.63;;;;;;;21.35;100.00;101079.25;5073555;28;20032;-66
2023/08/28 09:55:58;;;;;;;8.85;3.40;;;;;;;21.82;100.00;101089.19;5073966;28;20541;-64
2023/08/28 09:58:25;;;;;;;9.07;3.70;;;;;;;22.29;100.00;101099.00;5073959;28;20521;-62
2023/08/28 10:00:51;;;;;;;11.15;4.00;;;;;;;22.38;100.00;101087.91;5073880;28;20548;-65
2023/08/28 10:03:19;;;;;;;7.85;3.60;;;;;;;22.61;100.00;101094.13;5071918;28;20123;-71
2023/08/28 10:05:45;;;;;;;9.65;3.42;;;;;;;23.14;100.00;101082.03;5073565;28;20039;-70
2023/08/28 10:08:12;;;;;;;12.20;4.15;;;;;;;23.33;100.00;101082.94;5073816;28;20028;-71
2023/08/28 10:10:40;;;;;;;10.20;3.65;;;;;;;23.68;100.00;101085.81;5073921;28;20368;-71
2023/08/28 10:13:09;;;;;;;10.30;3.33;;;;;;;23.84;100.00;101088.66;5068204;28;20430;-71
2023/08/28 10:15:41;;;;;;;8.73;3.25;;;;;;;24.18;100.00;101076.25;5073576;28;20025;-71
2023/08/28 10:18:16;;;;;;;14.30;4.50;;;;;;;23.94;100.00;101078.34;5069503;28;20075;-70
2023/08/28 10:20:44;;;;;;;11.95;4.40;;;;;;;25.15;100.00;101075.91;5070234;28;20131;-70
2023/08/28 10:23:09;;;;;;;9.25;3.60;;;;;;;25.91;98.84;101079.94;5073057;28;20032;-69
2023/08/28 10:25:35;;;;;;;7.35;3.22;;;;;;;26.56;79.86;101087.94;5072862;28;20511;-70
2023/08/28 10:28:02;;;;;;;9.25;3.58;;;;;;;26.32;83.27;101089.41;5072183;28;20426;-69
2023/08/28 10:30:28;;;;;;;8.82;3.22;;;;;;;25.79;86.50;101089.63;5073122;28;20025;-70
2023/08/28 10:32:58;;;;;;;8.52;3.30;;;;;;;25.25;90.69;101078.97;5072938;28;20394;-69
2023/08/28 10:35:24;;;;;;;10.55;3.50;;;;;;;24.97;89.54;101080.44;5073213;28;20040;-69
2023/08/28 10:37:51;;;;;;;7.93;3.20;;;;;;;24.47;88.44;101081.19;5072979;28;20028;-68
2023/08/28 10:40:18;;;;;;;8.00;3.50;;;;;;;24.36;100.00;101084.41;5071785;28;20079;-71
2023/08/28 10:42:45;;;;;;;8.98;3.60;;;;;;;23.82;100.00;101078.88;5072933;28;20047;-70
2023/08/28 10:45:11;;;;;;;10.18;4.05;;;;;;;23.82;100.00;101078.88;5072720;28;20060;-70
2023/08/28 10:47:37;;;;;;;8.55;3.40;;;;;;;23.55;96.77;101089.16;5072955;28;20135;-70
2023/08/28 10:50:05;;;;;;;7.03;3.10;;;;;;;23.35;100.00;101080.16;5073282;28;20356;-70
2023/08/28 10:52:30;;;;;;;9.00;3.28;;;;;;;23.23;100.00;101078.03;5072882;28;20032;-71
2023/08/28 10:54:57;;;;;;;7.68;3.50;;;;;;;22.78;100.00;101070.03;5072962;28;20028;-70
2023/08/28 10:57:25;;;;;;;8.30;3.38;;;;;;;22.51;100.00;101084.69;5073031;28;20025;-71
2023/08/28 10:59:51;;;;;;;7.82;3.30;;;;;;;22.17;100.00;101076.13;5072314;28;20024;-70
2023/08/28 11:02:17;;;;;;;7.72;3.50;;;;;;;22.05;100.00;101079.34;5068532;28;20032;-67
2023/08/28 11:04:42;;;;;;;11.80;3.70;;;;;;;21.95;100.00;101073.44;5070001;28;20094;-62